createdAt,value
2023-05-21T00:00:17.127Z,445.00
2023-05-21T00:01:17.184Z,443.00
2023-05-21T00:02:17.190Z,442.00
2023-05-21T00:03:17.177Z,444.00
2023-05-21T00:04:17.339Z,444.00
2023-05-21T00:05:18.141Z,443.00
2023-05-21T00:06:18.209Z,444.00
2023-05-21T00:07:18.276Z,444.00
2023-05-21T00:08:17.432Z,446.00
2023-05-21T00:09:17.372Z,446.00
2023-05-21T00:10:17.386Z,445.00
2023-05-21T00:11:18.487Z,443.00
2023-05-21T00:12:17.297Z,444.00
2023-05-21T00:13:17.289Z,442.00
2023-05-21T00:14:18.225Z,442.00
2023-05-21T00:15:17.240Z,442.00
2023-05-21T00:16:17.418Z,441.00
2023-05-21T00:17:17.257Z,442.00
2023-05-21T00:18:18.281Z,443.00
2023-05-21T00:19:18.359Z,442.00
2023-05-21T00:20:18.325Z,442.00
2023-05-21T00:21:17.528Z,441.00
2023-05-21T00:22:17.611Z,443.00
2023-05-21T00:23:17.393Z,441.00
2023-05-21T00:24:17.561Z,440.00
2023-05-21T00:25:18.414Z,439.00
2023-05-21T00:26:18.472Z,438.00
2023-05-21T00:27:17.398Z,435.00
2023-05-21T00:28:17.596Z,432.00
2023-05-21T00:29:17.389Z,433.00
2023-05-21T00:30:18.637Z,435.00
2023-05-21T00:31:17.450Z,434.00
2023-05-21T00:32:17.426Z,433.00
2023-05-21T00:33:17.688Z,432.00
2023-05-21T00:34:17.508Z,433.00
2023-05-21T00:35:17.575Z,433.00
2023-05-21T00:36:17.511Z,433.00
2023-05-21T00:37:17.554Z,436.00
2023-05-21T00:38:17.625Z,437.00
2023-05-21T00:39:17.768Z,436.00
2023-05-21T00:40:17.828Z,436.00
2023-05-21T00:41:17.714Z,436.00
2023-05-21T00:42:18.661Z,436.00
2023-05-21T00:43:17.757Z,438.00
2023-05-21T00:44:17.880Z,436.00
2023-05-21T00:45:18.836Z,437.00
2023-05-21T00:46:18.944Z,435.00
2023-05-21T00:47:17.760Z,432.00
2023-05-21T00:48:17.873Z,432.00
2023-05-21T00:49:17.976Z,435.00
2023-05-21T00:50:18.757Z,437.00
2023-05-21T00:51:18.950Z,436.00
2023-05-21T00:52:17.853Z,436.00
2023-05-21T00:53:17.980Z,438.00
2023-05-21T00:54:18.839Z,441.00
2023-05-21T00:55:17.853Z,440.00
2023-05-21T00:56:18.047Z,437.00
2023-05-21T00:57:18.192Z,438.00
2023-05-21T00:58:18.979Z,440.00
2023-05-21T00:59:19.165Z,437.00
2023-05-21T01:00:18.023Z,435.00
2023-05-21T01:01:19.359Z,435.00
2023-05-21T01:02:19.033Z,436.00
2023-05-21T01:03:18.080Z,438.00
2023-05-21T01:04:19.052Z,438.00
2023-05-21T01:05:18.174Z,440.00
2023-05-21T01:06:18.205Z,440.00
2023-05-21T01:07:18.108Z,440.00
2023-05-21T01:08:18.185Z,438.00
2023-05-21T01:09:18.238Z,439.00
2023-05-21T01:10:18.185Z,436.00
2023-05-21T01:11:19.340Z,437.00
2023-05-21T01:12:18.222Z,439.00
2023-05-21T01:13:19.220Z,438.00
2023-05-21T01:14:18.265Z,437.00
2023-05-21T01:15:18.289Z,436.00
2023-05-21T01:16:18.528Z,434.00
2023-05-21T01:17:19.467Z,433.00
2023-05-21T01:18:19.440Z,435.00
2023-05-21T01:19:18.645Z,433.00
2023-05-21T01:20:19.503Z,432.00
2023-05-21T01:21:19.534Z,432.00
2023-05-21T01:22:18.528Z,433.00
2023-05-21T01:23:18.601Z,433.00
2023-05-21T01:24:18.581Z,435.00
2023-05-21T01:25:19.519Z,435.00
2023-05-21T01:26:18.564Z,435.00
2023-05-21T01:27:19.837Z,436.00
2023-05-21T01:28:19.704Z,437.00
2023-05-21T01:29:18.697Z,437.00
2023-05-21T01:30:18.811Z,437.00
2023-05-21T01:31:18.744Z,438.00
2023-05-21T01:32:19.980Z,436.00
2023-05-21T01:33:19.050Z,434.00
2023-05-21T01:34:18.996Z,436.00
2023-05-21T01:35:18.805Z,435.00
2023-05-21T01:36:18.832Z,434.00
2023-05-21T01:37:19.056Z,433.00
2023-05-21T01:38:19.992Z,435.00
2023-05-21T01:39:19.060Z,435.00
2023-05-21T01:40:19.970Z,436.00
2023-05-21T01:41:19.023Z,435.00
2023-05-21T01:42:20.106Z,436.00
2023-05-21T01:43:19.170Z,436.00
2023-05-21T01:44:19.332Z,435.00
2023-05-21T01:45:20.147Z,437.00
2023-05-21T01:46:20.199Z,436.00
2023-05-21T01:47:19.244Z,436.00
2023-05-21T01:48:19.455Z,436.00
2023-05-21T01:49:19.331Z,437.00
2023-05-21T01:50:19.296Z,437.00
2023-05-21T01:51:19.299Z,438.00
2023-05-21T01:52:19.329Z,440.00
2023-05-21T01:53:19.465Z,442.00
2023-05-21T01:54:19.384Z,440.00
2023-05-21T01:55:20.532Z,438.00
2023-05-21T01:56:20.652Z,438.00
2023-05-21T01:57:19.555Z,437.00
2023-05-21T01:58:20.501Z,437.00
2023-05-21T01:59:20.531Z,437.00
2023-05-21T02:00:19.720Z,435.00
2023-05-21T02:01:19.732Z,435.00
2023-05-21T02:02:20.893Z,435.00
2023-05-21T02:03:20.775Z,436.00
2023-05-21T02:04:19.678Z,437.00
2023-05-21T02:05:20.715Z,437.00
2023-05-21T02:06:20.914Z,437.00
2023-05-21T02:07:19.845Z,437.00
2023-05-21T02:08:20.830Z,437.00
2023-05-21T02:09:20.828Z,437.00
2023-05-21T02:10:19.871Z,438.00
2023-05-21T02:11:21.046Z,436.00
2023-05-21T02:12:21.164Z,435.00
2023-05-21T02:13:19.973Z,434.00
2023-05-21T02:14:21.003Z,433.00
2023-05-21T02:15:21.191Z,432.00
2023-05-21T02:16:20.153Z,433.00
2023-05-21T02:17:20.232Z,429.00
2023-05-21T02:18:20.188Z,428.00
2023-05-21T02:19:21.238Z,427.00
2023-05-21T02:20:21.256Z,427.00
2023-05-21T02:21:21.333Z,429.00
2023-05-21T02:22:20.337Z,428.00
2023-05-21T02:23:21.457Z,430.00
2023-05-21T02:24:20.422Z,430.00
2023-05-21T02:25:20.541Z,430.00
2023-05-21T02:26:20.712Z,431.00
2023-05-21T02:27:20.650Z,432.00
2023-05-21T02:28:20.746Z,431.00
2023-05-21T02:29:20.614Z,432.00
2023-05-21T02:30:20.746Z,433.00
2023-05-21T02:31:20.677Z,435.00
2023-05-21T02:32:21.830Z,435.00
2023-05-21T02:33:21.804Z,434.00
2023-05-21T02:34:22.049Z,435.00
2023-05-21T02:35:21.856Z,434.00
2023-05-21T02:36:20.994Z,434.00
2023-05-21T02:37:21.141Z,433.00
2023-05-21T02:38:22.182Z,436.00
2023-05-21T02:39:22.008Z,436.00
2023-05-21T02:40:22.087Z,434.00
2023-05-21T02:41:22.117Z,432.00
2023-05-21T02:42:22.403Z,433.00
2023-05-21T02:43:21.233Z,433.00
2023-05-21T02:44:21.221Z,433.00
2023-05-21T02:45:22.387Z,435.00
2023-05-21T02:46:21.259Z,435.00
2023-05-21T02:47:21.270Z,435.00
2023-05-21T02:48:21.375Z,437.00
2023-05-21T02:49:21.421Z,440.00
2023-05-21T02:50:21.661Z,441.00
2023-05-21T02:51:21.507Z,441.00
2023-05-21T02:52:22.436Z,443.00
2023-05-21T02:53:21.482Z,441.00
2023-05-21T02:54:21.518Z,440.00
2023-05-21T02:55:21.552Z,437.00
2023-05-21T02:56:22.677Z,437.00
2023-05-21T02:57:22.743Z,436.00
2023-05-21T02:58:21.705Z,437.00
2023-05-21T02:59:21.705Z,437.00
2023-05-21T03:00:21.936Z,437.00
2023-05-21T03:01:23.082Z,438.00
2023-05-21T03:02:22.208Z,438.00
2023-05-21T03:03:22.103Z,438.00
2023-05-21T03:04:22.020Z,438.00
2023-05-21T03:05:22.048Z,438.00
2023-05-21T03:06:22.048Z,439.00
2023-05-21T03:07:22.344Z,438.00
2023-05-21T03:08:23.184Z,439.00
2023-05-21T03:09:23.173Z,441.00
2023-05-21T03:10:22.330Z,442.00
2023-05-21T03:11:23.156Z,441.00
2023-05-21T03:12:23.196Z,439.00
2023-05-21T03:13:23.423Z,439.00
2023-05-21T03:14:22.418Z,440.00
2023-05-21T03:15:22.489Z,440.00
2023-05-21T03:16:22.462Z,441.00
2023-05-21T03:17:22.407Z,443.00
2023-05-21T03:18:22.682Z,447.00
2023-05-21T03:19:23.659Z,445.00
2023-05-21T03:20:22.525Z,447.00
2023-05-21T03:21:23.658Z,447.00
2023-05-21T03:22:23.665Z,446.00
2023-05-21T03:23:23.649Z,446.00
2023-05-21T03:24:22.684Z,446.00
2023-05-21T03:25:22.729Z,445.00
2023-05-21T03:26:23.755Z,446.00
2023-05-21T03:27:22.798Z,446.00
2023-05-21T03:28:22.884Z,445.00
2023-05-21T03:29:24.082Z,443.00
2023-05-21T03:30:23.076Z,444.00
2023-05-21T03:31:22.970Z,443.00
2023-05-21T03:32:23.241Z,443.00
2023-05-21T03:33:23.033Z,444.00
2023-05-21T03:34:23.079Z,446.00
2023-05-21T03:35:24.136Z,446.00
2023-05-21T03:36:23.171Z,449.00
2023-05-21T03:37:24.202Z,445.00
2023-05-21T03:38:23.269Z,445.00
2023-05-21T03:39:23.308Z,444.00
2023-05-21T03:40:23.332Z,442.00
2023-05-21T03:41:23.489Z,444.00
2023-05-21T03:42:23.412Z,440.00
2023-05-21T03:43:23.483Z,437.00
2023-05-21T03:44:23.518Z,436.00
2023-05-21T03:45:23.575Z,437.00
2023-05-21T03:46:24.629Z,437.00
2023-05-21T03:47:23.749Z,435.00
2023-05-21T03:48:23.704Z,439.00
2023-05-21T03:49:23.738Z,438.00
2023-05-21T03:50:23.843Z,438.00
2023-05-21T03:51:23.902Z,438.00
2023-05-21T03:52:24.888Z,439.00
2023-05-21T03:53:25.114Z,439.00
2023-05-21T03:54:25.012Z,441.00
2023-05-21T03:55:25.043Z,442.00
2023-05-21T03:56:25.055Z,444.00
2023-05-21T03:57:25.105Z,444.00
2023-05-21T03:58:24.188Z,443.00
2023-05-21T03:59:24.192Z,446.00
2023-05-21T04:00:25.269Z,447.00
2023-05-21T04:01:24.312Z,446.00
2023-05-21T04:02:24.520Z,442.00
2023-05-21T04:03:24.629Z,444.00
2023-05-21T04:04:24.535Z,445.00
2023-05-21T04:05:25.589Z,444.00
2023-05-21T04:06:24.666Z,442.00
2023-05-21T04:07:25.687Z,442.00
2023-05-21T04:08:24.603Z,442.00
2023-05-21T04:09:24.798Z,444.00
2023-05-21T04:10:25.720Z,446.00
2023-05-21T04:11:25.777Z,445.00
2023-05-21T04:12:24.957Z,446.00
2023-05-21T04:13:24.912Z,446.00
2023-05-21T04:14:24.931Z,444.00
2023-05-21T04:15:25.172Z,443.00
2023-05-21T04:16:25.124Z,442.00
2023-05-21T04:17:26.093Z,444.00
2023-05-21T04:18:26.418Z,445.00
2023-05-21T04:19:25.266Z,446.00
2023-05-21T04:20:25.350Z,446.00
2023-05-21T04:21:25.266Z,446.00
2023-05-21T04:22:26.467Z,445.00
2023-05-21T04:23:25.589Z,444.00
2023-05-21T04:24:25.400Z,444.00
2023-05-21T04:25:26.594Z,443.00
2023-05-21T04:26:25.500Z,443.00
2023-05-21T04:27:26.624Z,441.00
2023-05-21T04:28:25.663Z,442.00
2023-05-21T04:29:26.657Z,443.00
2023-05-21T04:30:25.924Z,443.00
2023-05-21T04:31:26.969Z,447.00
2023-05-21T04:32:26.908Z,449.00
2023-05-21T04:33:25.841Z,448.00
2023-05-21T04:34:26.884Z,447.00
2023-05-21T04:35:26.990Z,446.00
2023-05-21T04:36:26.993Z,444.00
2023-05-21T04:37:27.101Z,444.00
2023-05-21T04:38:26.224Z,443.00
2023-05-21T04:39:26.384Z,444.00
2023-05-21T04:40:26.326Z,444.00
2023-05-21T04:41:26.478Z,442.00
2023-05-21T04:42:27.489Z,442.00
2023-05-21T04:43:27.498Z,440.00
2023-05-21T04:44:27.392Z,441.00
2023-05-21T04:45:27.463Z,445.00
2023-05-21T04:46:26.868Z,444.00
2023-05-21T04:47:26.603Z,444.00
2023-05-21T04:48:26.637Z,445.00
2023-05-21T04:49:26.673Z,447.00
2023-05-21T04:50:27.715Z,447.00
2023-05-21T04:51:27.774Z,446.00
2023-05-21T04:52:26.941Z,445.00
2023-05-21T04:53:27.083Z,444.00
2023-05-21T04:54:27.973Z,442.00
2023-05-21T04:55:27.183Z,443.00
2023-05-21T04:56:28.223Z,440.00
2023-05-21T04:57:28.196Z,439.00
2023-05-21T04:58:28.207Z,440.00
2023-05-21T04:59:28.171Z,440.00
2023-05-21T05:00:27.392Z,441.00
2023-05-21T05:01:28.566Z,441.00
2023-05-21T05:02:28.467Z,442.00
2023-05-21T05:03:28.618Z,444.00
2023-05-21T05:04:27.459Z,446.00
2023-05-21T05:05:27.478Z,445.00
2023-05-21T05:06:28.598Z,445.00
2023-05-21T05:07:27.573Z,445.00
2023-05-21T05:08:27.624Z,446.00
2023-05-21T05:09:27.813Z,446.00
2023-05-21T05:10:28.989Z,445.00
2023-05-21T05:11:27.960Z,444.00
2023-05-21T05:12:27.929Z,445.00
2023-05-21T05:13:27.894Z,444.00
2023-05-21T05:14:28.043Z,443.00
2023-05-21T05:15:28.186Z,445.00
2023-05-21T05:16:29.297Z,443.00
2023-05-21T05:17:28.261Z,443.00
2023-05-21T05:18:29.289Z,443.00
2023-05-21T05:19:28.431Z,440.00
2023-05-21T05:20:28.317Z,442.00
2023-05-21T05:21:28.294Z,443.00
2023-05-21T05:22:29.561Z,442.00
2023-05-21T05:23:28.450Z,443.00
2023-05-21T05:24:28.678Z,443.00
2023-05-21T05:25:28.646Z,444.00
2023-05-21T05:26:28.654Z,443.00
2023-05-21T05:27:28.864Z,446.00
2023-05-21T05:28:28.691Z,447.00
2023-05-21T05:29:29.872Z,446.00
2023-05-21T05:30:29.769Z,445.00
2023-05-21T05:31:28.818Z,445.00
2023-05-21T05:32:28.909Z,449.00
2023-05-21T05:33:29.995Z,446.00
2023-05-21T05:34:29.124Z,444.00
2023-05-21T05:35:30.066Z,446.00
2023-05-21T05:36:30.028Z,445.00
2023-05-21T05:37:30.171Z,445.00
2023-05-21T05:38:30.121Z,446.00
2023-05-21T05:39:30.198Z,448.00
2023-05-21T05:40:29.222Z,449.00
2023-05-21T05:41:29.383Z,448.00
2023-05-21T05:42:29.557Z,449.00
2023-05-21T05:43:29.394Z,446.00
2023-05-21T05:44:29.567Z,444.00
2023-05-21T05:45:30.476Z,445.00
2023-05-21T05:46:29.653Z,441.00
2023-05-21T05:47:29.824Z,442.00
2023-05-21T05:48:29.650Z,444.00
2023-05-21T05:49:30.664Z,442.00
2023-05-21T05:50:29.712Z,443.00
2023-05-21T05:51:29.734Z,442.00
2023-05-21T05:52:30.885Z,440.00
2023-05-21T05:53:30.823Z,440.00
2023-05-21T05:54:31.077Z,441.00
2023-05-21T05:55:29.944Z,441.00
2023-05-21T05:56:29.957Z,443.00
2023-05-21T05:57:31.110Z,445.00
2023-05-21T05:58:30.080Z,448.00
2023-05-21T05:59:31.211Z,448.00
2023-05-21T06:00:31.305Z,448.00
2023-05-21T06:01:31.313Z,446.00
2023-05-21T06:02:31.515Z,446.00
2023-05-21T06:03:30.648Z,444.00
2023-05-21T06:04:30.533Z,446.00
2023-05-21T06:05:30.468Z,447.00
2023-05-21T06:06:30.450Z,445.00
2023-05-21T06:07:31.581Z,444.00
2023-05-21T06:08:31.636Z,443.00
2023-05-21T06:09:30.697Z,444.00
2023-05-21T06:10:30.856Z,444.00
2023-05-21T06:11:31.724Z,443.00
2023-05-21T06:12:31.958Z,445.00
2023-05-21T06:13:30.941Z,441.00
2023-05-21T06:14:31.151Z,443.00
2023-05-21T06:15:30.970Z,444.00
2023-05-21T06:16:31.059Z,447.00
2023-05-21T06:17:32.250Z,448.00
2023-05-21T06:18:32.212Z,448.00
2023-05-21T06:19:31.500Z,446.00
2023-05-21T06:20:31.261Z,447.00
2023-05-21T06:21:31.316Z,447.00
2023-05-21T06:22:31.368Z,447.00
2023-05-21T06:23:32.565Z,446.00
2023-05-21T06:24:31.493Z,447.00
2023-05-21T06:25:32.539Z,447.00
2023-05-21T06:26:31.612Z,447.00
2023-05-21T06:27:31.669Z,448.00
2023-05-21T06:28:32.701Z,449.00
2023-05-21T06:29:31.790Z,449.00
2023-05-21T06:30:31.824Z,449.00
2023-05-21T06:31:31.889Z,449.00
2023-05-21T06:32:33.122Z,451.00
2023-05-21T06:33:33.086Z,452.00
2023-05-21T06:34:32.058Z,452.00
2023-05-21T06:35:32.120Z,451.00
2023-05-21T06:36:32.182Z,449.00
2023-05-21T06:37:33.367Z,449.00
2023-05-21T06:38:32.289Z,447.00
2023-05-21T06:39:32.361Z,449.00
2023-05-21T06:40:33.537Z,449.00
2023-05-21T06:41:32.466Z,451.00
2023-05-21T06:42:33.565Z,448.00
2023-05-21T06:43:33.658Z,448.00
2023-05-21T06:44:33.664Z,448.00
2023-05-21T06:45:32.896Z,446.00
2023-05-21T06:46:32.793Z,446.00
2023-05-21T06:47:33.949Z,447.00
2023-05-21T06:48:32.975Z,446.00
2023-05-21T06:49:33.061Z,448.00
2023-05-21T06:50:33.009Z,448.00
2023-05-21T06:51:33.046Z,450.00
2023-05-21T06:52:34.255Z,449.00
2023-05-21T06:53:33.098Z,449.00
2023-05-21T06:54:34.183Z,448.00
2023-05-21T06:55:34.323Z,447.00
2023-05-21T06:56:33.249Z,450.00
2023-05-21T06:57:34.290Z,450.00
2023-05-21T06:58:34.406Z,450.00
2023-05-21T06:59:33.469Z,452.00
2023-05-21T07:00:33.585Z,452.00
2023-05-21T07:01:34.609Z,450.00
2023-05-21T07:02:33.562Z,449.00
2023-05-21T07:03:33.748Z,449.00
2023-05-21T07:04:33.736Z,451.00
2023-05-21T07:05:34.992Z,449.00
2023-05-21T07:06:33.861Z,450.00
2023-05-21T07:07:34.995Z,451.00
2023-05-21T07:08:34.769Z,450.00
2023-05-21T07:09:33.796Z,449.00
2023-05-21T07:10:33.914Z,449.00
2023-05-21T07:11:33.906Z,448.00
2023-05-21T07:12:34.940Z,447.00
2023-05-21T07:13:34.959Z,448.00
2023-05-21T07:14:33.985Z,447.00
2023-05-21T07:15:35.265Z,448.00
2023-05-21T07:16:34.185Z,447.00
2023-05-21T07:17:34.241Z,446.00
2023-05-21T07:18:34.216Z,444.00
2023-05-21T07:19:34.267Z,444.00
2023-05-21T07:20:35.288Z,445.00
2023-05-21T07:21:35.200Z,445.00
2023-05-21T07:22:35.359Z,447.00
2023-05-21T07:23:35.361Z,448.00
2023-05-21T07:24:35.340Z,446.00
2023-05-21T07:25:34.522Z,445.00
2023-05-21T07:26:34.349Z,445.00
2023-05-21T07:27:34.372Z,444.00
2023-05-21T07:28:34.335Z,445.00
2023-05-21T07:29:34.537Z,447.00
2023-05-21T07:30:35.452Z,450.00
2023-05-21T07:31:35.688Z,450.00
2023-05-21T07:32:34.502Z,451.00
2023-05-21T07:33:35.425Z,452.00
2023-05-21T07:34:35.433Z,452.00
2023-05-21T07:35:35.661Z,451.00
2023-05-21T07:36:35.552Z,451.00
2023-05-21T07:37:34.606Z,448.00
2023-05-21T07:38:34.594Z,444.00
2023-05-21T07:39:34.739Z,444.00
2023-05-21T07:40:35.534Z,445.00
2023-05-21T07:41:35.645Z,445.00
2023-05-21T07:42:34.524Z,444.00
2023-05-21T07:43:34.490Z,443.00
2023-05-21T07:44:35.703Z,443.00
2023-05-21T07:45:34.763Z,443.00
2023-05-21T07:46:34.644Z,441.00
2023-05-21T07:47:34.694Z,443.00
2023-05-21T07:48:35.864Z,444.00
2023-05-21T07:49:34.715Z,444.00
2023-05-21T07:50:34.609Z,444.00
2023-05-21T07:51:34.577Z,442.00
2023-05-21T07:52:34.802Z,442.00
2023-05-21T07:53:34.762Z,440.00
2023-05-21T07:54:34.493Z,444.00
2023-05-21T07:55:35.766Z,444.00
2023-05-21T07:56:35.504Z,444.00
2023-05-21T07:57:34.646Z,444.00
2023-05-21T07:58:34.497Z,444.00
2023-05-21T07:59:34.506Z,443.00
2023-05-21T08:00:34.559Z,445.00
2023-05-21T08:01:34.591Z,445.00
2023-05-21T08:02:35.641Z,446.00
2023-05-21T08:03:34.717Z,445.00
2023-05-21T08:04:36.530Z,447.00
2023-05-21T08:05:34.660Z,447.00
2023-05-21T08:06:34.709Z,446.00
2023-05-21T08:07:35.524Z,444.00
2023-05-21T08:08:34.489Z,443.00
2023-05-21T08:09:34.495Z,447.00
2023-05-21T08:10:34.453Z,448.00
2023-05-21T08:11:34.443Z,446.00
2023-05-21T08:12:34.424Z,446.00
2023-05-21T08:13:35.572Z,446.00
2023-05-21T08:14:35.593Z,445.00
2023-05-21T08:15:35.908Z,448.00
2023-05-21T08:16:34.615Z,449.00
2023-05-21T08:17:35.575Z,449.00
2023-05-21T08:18:35.395Z,449.00
2023-05-21T08:19:35.520Z,449.00
2023-05-21T08:20:34.476Z,449.00
2023-05-21T08:21:34.544Z,448.00
2023-05-21T08:22:34.370Z,448.00
2023-05-21T08:23:34.548Z,447.00
2023-05-21T08:24:34.686Z,448.00
2023-05-21T08:25:35.884Z,450.00
2023-05-21T08:26:34.386Z,450.00
2023-05-21T08:27:34.333Z,451.00
2023-05-21T08:28:35.311Z,451.00
2023-05-21T08:29:35.328Z,449.00
2023-05-21T08:30:35.417Z,448.00
2023-05-21T08:31:35.361Z,447.00
2023-05-21T08:32:34.330Z,443.00
2023-05-21T08:33:34.273Z,443.00
2023-05-21T08:34:35.272Z,443.00
2023-05-21T08:35:34.442Z,445.00
2023-05-21T08:36:34.338Z,445.00
2023-05-21T08:37:35.299Z,443.00
2023-05-21T08:38:34.302Z,444.00
2023-05-21T08:39:35.263Z,445.00
2023-05-21T08:40:34.251Z,445.00
2023-05-21T08:41:34.228Z,445.00
2023-05-21T08:42:37.362Z,444.00
2023-05-21T08:43:34.252Z,443.00
2023-05-21T08:44:34.248Z,445.00
2023-05-21T08:45:35.564Z,446.00
2023-05-21T08:46:34.380Z,446.00
2023-05-21T08:47:35.317Z,444.00
2023-05-21T08:48:34.405Z,443.00
2023-05-21T08:49:34.219Z,445.00
2023-05-21T08:50:35.203Z,444.00
2023-05-21T08:51:34.338Z,443.00
2023-05-21T08:52:35.175Z,444.00
2023-05-21T08:53:35.208Z,444.00
2023-05-21T08:54:34.381Z,445.00
2023-05-21T08:55:34.383Z,446.00
2023-05-21T08:56:35.192Z,448.00
2023-05-21T08:57:34.239Z,447.00
2023-05-21T08:58:35.278Z,447.00
2023-05-21T08:59:35.264Z,445.00
2023-05-21T09:00:34.116Z,444.00
2023-05-21T09:01:34.372Z,444.00
2023-05-21T09:02:34.525Z,442.00
2023-05-21T09:03:34.371Z,443.00
2023-05-21T09:04:34.428Z,444.00
2023-05-21T09:05:34.713Z,443.00
2023-05-21T09:06:35.443Z,444.00
2023-05-21T09:07:34.518Z,444.00
2023-05-21T09:08:34.701Z,444.00
2023-05-21T09:09:35.673Z,445.00
2023-05-21T09:10:34.869Z,444.00
2023-05-21T09:11:34.730Z,442.00
2023-05-21T09:12:35.977Z,442.00
2023-05-21T09:13:35.846Z,443.00
2023-05-21T09:14:36.055Z,443.00
2023-05-21T09:15:35.256Z,444.00
2023-05-21T09:16:36.182Z,444.00
2023-05-21T09:17:36.319Z,445.00
2023-05-21T09:18:36.248Z,443.00
2023-05-21T09:19:35.456Z,442.00
2023-05-21T09:20:35.328Z,443.00
2023-05-21T09:21:35.501Z,444.00
2023-05-21T09:22:35.418Z,443.00
2023-05-21T09:23:36.540Z,442.00
2023-05-21T09:24:36.737Z,443.00
2023-05-21T09:25:36.701Z,444.00
2023-05-21T09:26:35.856Z,441.00
2023-05-21T09:27:35.665Z,443.00
2023-05-21T09:28:35.912Z,443.00
2023-05-21T09:29:36.838Z,444.00
2023-05-21T09:30:36.528Z,444.00
2023-05-21T09:31:37.115Z,443.00
2023-05-21T09:32:37.182Z,444.00
2023-05-21T09:33:36.080Z,444.00
2023-05-21T09:34:36.994Z,443.00
2023-05-21T09:35:37.545Z,443.00
2023-05-21T09:36:36.251Z,443.00
2023-05-21T09:37:36.113Z,443.00
2023-05-21T09:38:36.372Z,444.00
2023-05-21T09:39:36.163Z,444.00
2023-05-21T09:40:36.473Z,443.00
2023-05-21T09:41:37.260Z,441.00
2023-05-21T09:42:37.293Z,440.00
2023-05-21T09:43:36.329Z,442.00
2023-05-21T09:44:36.393Z,441.00
2023-05-21T09:45:36.581Z,443.00
2023-05-21T09:46:36.444Z,445.00
2023-05-21T09:47:36.651Z,445.00
2023-05-21T09:48:36.704Z,443.00
2023-05-21T09:49:37.800Z,442.00
2023-05-21T09:50:37.983Z,441.00
2023-05-21T09:51:36.821Z,442.00
2023-05-21T09:52:39.095Z,443.00
2023-05-21T09:53:37.680Z,442.00
2023-05-21T09:54:36.717Z,440.00
2023-05-21T09:55:36.732Z,438.00
2023-05-21T09:56:37.855Z,438.00
2023-05-21T09:57:37.659Z,437.00
2023-05-21T09:58:37.643Z,437.00
2023-05-21T09:59:36.638Z,438.00
2023-05-21T10:00:37.933Z,437.00
2023-05-21T10:01:36.719Z,440.00
2023-05-21T10:02:36.744Z,439.00
2023-05-21T10:03:36.612Z,441.00
2023-05-21T10:04:36.876Z,442.00
2023-05-21T10:05:36.694Z,439.00
2023-05-21T10:06:37.603Z,439.00
2023-05-21T10:07:36.673Z,439.00
2023-05-21T10:08:37.832Z,439.00
2023-05-21T10:09:36.576Z,438.00
2023-05-21T10:10:37.817Z,440.00
2023-05-21T10:11:36.741Z,438.00
2023-05-21T10:12:37.714Z,437.00
2023-05-21T10:13:37.542Z,436.00
2023-05-21T10:14:37.558Z,437.00
2023-05-21T10:15:37.582Z,438.00
2023-05-21T10:16:37.776Z,441.00
2023-05-21T10:17:37.604Z,440.00
2023-05-21T10:18:37.675Z,439.00
2023-05-21T10:19:36.524Z,439.00
2023-05-21T10:20:38.011Z,438.00
2023-05-21T10:21:37.479Z,437.00
2023-05-21T10:22:37.561Z,435.00
2023-05-21T10:23:37.510Z,437.00
2023-05-21T10:24:37.549Z,436.00
2023-05-21T10:25:37.743Z,437.00
2023-05-21T10:26:36.814Z,439.00
2023-05-21T10:27:36.703Z,440.00
2023-05-21T10:28:37.678Z,440.00
2023-05-21T10:29:37.825Z,440.00
2023-05-21T10:30:38.448Z,440.00
2023-05-21T10:31:37.791Z,439.00
2023-05-21T10:32:38.150Z,439.00
2023-05-21T10:33:37.947Z,439.00
2023-05-21T10:34:37.879Z,437.00
2023-05-21T10:35:37.399Z,437.00
2023-05-21T10:36:37.084Z,436.00
2023-05-21T10:37:38.039Z,437.00
2023-05-21T10:38:36.984Z,438.00
2023-05-21T10:39:38.024Z,439.00
2023-05-21T10:40:38.223Z,438.00
2023-05-21T10:41:38.129Z,440.00
2023-05-21T10:42:37.100Z,440.00
2023-05-21T10:43:37.145Z,440.00
2023-05-21T10:44:37.307Z,440.00
2023-05-21T10:45:37.284Z,442.00
2023-05-21T10:46:37.217Z,440.00
2023-05-21T10:47:38.351Z,440.00
2023-05-21T10:48:37.311Z,439.00
2023-05-21T10:49:38.396Z,440.00
2023-05-21T10:50:38.723Z,440.00
2023-05-21T10:51:38.318Z,441.00
2023-05-21T10:52:37.339Z,440.00
2023-05-21T10:53:38.364Z,440.00
2023-05-21T10:54:38.370Z,438.00
2023-05-21T10:55:37.426Z,439.00
2023-05-21T10:56:37.506Z,438.00
2023-05-21T10:57:37.424Z,438.00
2023-05-21T10:58:37.645Z,439.00
2023-05-21T10:59:37.481Z,437.00
2023-05-21T11:00:37.803Z,440.00
2023-05-21T11:01:38.556Z,441.00
2023-05-21T11:02:37.910Z,440.00
2023-05-21T11:03:38.954Z,440.00
2023-05-21T11:04:37.623Z,441.00
2023-05-21T11:05:37.692Z,442.00
2023-05-21T11:06:37.584Z,443.00
2023-05-21T11:07:37.601Z,442.00
2023-05-21T11:08:37.678Z,443.00
2023-05-21T11:09:38.707Z,441.00
2023-05-21T11:10:39.116Z,438.00
2023-05-21T11:11:37.684Z,437.00
2023-05-21T11:12:38.689Z,438.00
2023-05-21T11:13:37.759Z,440.00
2023-05-21T11:14:38.733Z,439.00
2023-05-21T11:15:37.748Z,442.00
2023-05-21T11:16:38.824Z,440.00
2023-05-21T11:17:37.816Z,440.00
2023-05-21T11:18:37.791Z,438.00
2023-05-21T11:19:38.012Z,437.00
2023-05-21T11:20:38.113Z,438.00
2023-05-21T11:21:38.841Z,440.00
2023-05-21T11:22:37.899Z,440.00
2023-05-21T11:23:37.891Z,441.00
2023-05-21T11:24:38.970Z,439.00
2023-05-21T11:25:37.919Z,441.00
2023-05-21T11:26:38.940Z,440.00
2023-05-21T11:27:38.962Z,441.00
2023-05-21T11:28:38.958Z,440.00
2023-05-21T11:29:38.043Z,436.00
2023-05-21T11:30:41.002Z,435.00
2023-05-21T11:31:38.121Z,432.00
2023-05-21T11:32:38.038Z,433.00
2023-05-21T11:33:38.012Z,433.00
2023-05-21T11:34:38.137Z,435.00
2023-05-21T11:35:38.165Z,435.00
2023-05-21T11:36:38.203Z,436.00
2023-05-21T11:37:38.128Z,436.00
2023-05-21T11:38:37.936Z,435.00
2023-05-21T11:39:37.942Z,435.00
2023-05-21T11:40:39.078Z,434.00
2023-05-21T11:41:38.897Z,433.00
2023-05-21T11:42:38.078Z,431.00
2023-05-21T11:43:39.120Z,430.00
2023-05-21T11:44:38.070Z,431.00
2023-05-21T11:45:37.893Z,433.00
2023-05-21T11:46:37.979Z,432.00
2023-05-21T11:47:38.891Z,431.00
2023-05-21T11:48:37.865Z,430.00
2023-05-21T11:49:38.838Z,431.00
2023-05-21T11:50:38.506Z,431.00
2023-05-21T11:51:38.054Z,431.00
2023-05-21T11:52:37.902Z,430.00
2023-05-21T11:53:37.870Z,428.00
2023-05-21T11:54:38.011Z,430.00
2023-05-21T11:55:37.811Z,430.00
2023-05-21T11:56:38.835Z,428.00
2023-05-21T11:57:37.785Z,428.00
2023-05-21T11:58:38.829Z,428.00
2023-05-21T11:59:38.808Z,428.00
2023-05-21T12:00:39.001Z,430.00
2023-05-21T12:01:37.759Z,429.00
2023-05-21T12:02:38.795Z,431.00
2023-05-21T12:03:37.932Z,430.00
2023-05-21T12:04:37.769Z,431.00
2023-05-21T12:05:37.902Z,432.00
2023-05-21T12:06:37.727Z,430.00
2023-05-21T12:07:37.937Z,431.00
2023-05-21T12:08:37.863Z,429.00
2023-05-21T12:09:37.698Z,426.00
2023-05-21T12:10:37.915Z,426.00
2023-05-21T12:11:38.728Z,424.00
2023-05-21T12:12:50.500Z,427.00
2023-05-21T12:13:38.758Z,428.00
2023-05-21T12:14:37.673Z,430.00
2023-05-21T12:15:37.756Z,430.00
2023-05-21T12:16:37.878Z,428.00
2023-05-21T12:17:38.699Z,427.00
2023-05-21T12:18:37.734Z,430.00
2023-05-21T12:19:37.625Z,431.00
2023-05-21T12:20:38.026Z,432.00
2023-05-21T12:21:37.755Z,435.00
2023-05-21T12:22:37.632Z,437.00
2023-05-21T12:23:37.710Z,437.00
2023-05-21T12:24:38.835Z,437.00
2023-05-21T12:25:37.674Z,436.00
2023-05-21T12:26:38.608Z,435.00
2023-05-21T12:27:38.742Z,437.00
2023-05-21T12:28:37.554Z,436.00